createdAt,value
2018-03-15T00:02:27.894Z,8.40
2018-03-15T00:04:56.177Z,8.47
2018-03-15T00:07:24.438Z,9.43
2018-03-15T00:09:52.815Z,8.50
2018-03-15T00:12:21.089Z,9.60
2018-03-15T00:14:49.428Z,9.97
2018-03-15T00:17:17.691Z,9.50
2018-03-15T00:19:46.841Z,8.43
2018-03-15T00:22:15.153Z,8.73
2018-03-15T00:24:44.213Z,8.00
2018-03-15T00:27:12.487Z,8.60
2018-03-15T00:29:40.774Z,8.67
2018-03-15T00:32:09.036Z,8.37
2018-03-15T00:34:37.326Z,10.53
2018-03-15T00:37:05.591Z,8.30
2018-03-15T00:39:33.858Z,8.43
2018-03-15T00:42:02.154Z,8.67
2018-03-15T00:44:30.417Z,10.10
2018-03-15T00:46:58.717Z,9.20
2018-03-15T00:49:27.010Z,9.47
2018-03-15T00:51:56.064Z,9.53
2018-03-15T00:54:24.327Z,10.00
2018-03-15T00:56:52.614Z,9.73
2018-03-15T00:59:20.877Z,9.03
2018-03-15T01:01:49.155Z,9.77
2018-03-15T01:04:17.426Z,8.97
2018-03-15T01:06:45.720Z,9.50
2018-03-15T01:09:13.989Z,10.17
2018-03-15T01:11:42.347Z,9.00
2018-03-15T01:14:10.623Z,9.10
2018-03-15T01:16:39.656Z,8.90
2018-03-15T01:19:07.941Z,9.63
2018-03-15T01:21:36.220Z,9.33
2018-03-15T01:24:04.612Z,9.67
2018-03-15T01:26:32.883Z,10.77
2018-03-15T01:29:01.241Z,10.23
2018-03-15T01:31:30.236Z,8.60
2018-03-15T01:33:58.641Z,9.63
2018-03-15T01:36:26.906Z,10.13
2018-03-15T01:38:55.203Z,10.50
2018-03-15T01:41:23.579Z,10.33
2018-03-15T01:43:51.861Z,10.07
2018-03-15T01:46:20.145Z,10.13
2018-03-15T01:48:49.173Z,9.83
2018-03-15T01:51:17.464Z,10.13
2018-03-15T01:53:45.728Z,10.63
2018-03-15T01:56:14.017Z,10.27
2018-03-15T01:58:42.286Z,12.33
2018-03-15T02:01:10.590Z,9.37
2018-03-15T02:03:38.894Z,10.17
2018-03-15T02:06:07.276Z,11.03
2018-03-15T02:08:35.602Z,9.67
2018-03-15T02:11:04.612Z,10.77
2018-03-15T02:13:32.904Z,10.73
2018-03-15T02:16:01.203Z,10.27
2018-03-15T02:18:29.583Z,10.93
2018-03-15T02:20:57.860Z,10.33
2018-03-15T02:23:26.684Z,9.70
2018-03-15T02:25:55.720Z,9.20
2018-03-15T02:28:24.024Z,11.20
2018-03-15T02:30:52.290Z,11.60
2018-03-15T02:33:20.665Z,10.03
2018-03-15T02:35:48.935Z,11.10
2018-03-15T02:38:17.230Z,10.23
2018-03-15T02:40:45.508Z,11.13
2018-03-15T02:43:13.809Z,11.77
2018-03-15T02:45:42.983Z,10.40
2018-03-15T02:48:11.273Z,11.03
2018-03-15T02:50:40.313Z,9.93
2018-03-15T02:53:08.600Z,11.90
2018-03-15T02:55:36.888Z,10.27
2018-03-15T02:58:05.164Z,10.37
2018-03-15T03:00:34.216Z,9.80
2018-03-15T03:03:02.588Z,10.87
2018-03-15T03:05:30.840Z,10.67
2018-03-15T03:07:59.146Z,9.17
2018-03-15T03:10:27.548Z,9.53
2018-03-15T03:12:55.813Z,9.90
2018-03-15T03:15:24.113Z,11.90
2018-03-15T03:17:53.165Z,9.23
2018-03-15T03:20:21.481Z,9.87
2018-03-15T03:22:49.746Z,9.97
2018-03-15T03:25:18.057Z,9.77
2018-03-15T03:27:46.336Z,10.30
2018-03-15T03:30:14.614Z,10.00
2018-03-15T03:32:42.922Z,10.03
2018-03-15T03:35:11.266Z,9.77
2018-03-15T03:37:40.330Z,9.90
2018-03-15T03:40:09.442Z,11.20
2018-03-15T03:42:37.742Z,10.00
2018-03-15T03:45:06.006Z,9.50
2018-03-15T03:47:35.056Z,10.27
2018-03-15T03:50:03.329Z,9.30
2018-03-15T03:52:31.624Z,9.87
2018-03-15T03:54:59.900Z,8.70
2018-03-15T03:57:28.201Z,9.33
2018-03-15T03:59:56.463Z,9.73
2018-03-15T04:02:24.756Z,10.53
2018-03-15T04:04:53.035Z,10.07
2018-03-15T04:07:21.313Z,9.37
2018-03-15T04:09:49.609Z,9.60
2018-03-15T04:12:18.637Z,10.73
2018-03-15T04:14:46.917Z,10.70
2018-03-15T04:17:15.185Z,10.80
2018-03-15T04:19:43.493Z,9.00
2018-03-15T04:22:11.777Z,9.67
2018-03-15T04:24:40.053Z,10.50
2018-03-15T04:27:08.347Z,9.63
2018-03-15T04:29:36.715Z,10.87
2018-03-15T04:32:05.768Z,10.50
2018-03-15T04:34:34.089Z,11.43
2018-03-15T04:37:02.474Z,10.57
2018-03-15T04:39:30.741Z,10.03
2018-03-15T04:41:59.031Z,10.73
2018-03-15T04:44:27.320Z,10.23
2018-03-15T04:46:56.372Z,12.30
2018-03-15T04:49:24.670Z,12.60
2018-03-15T04:51:53.057Z,10.73
2018-03-15T04:54:21.343Z,11.53
2018-03-15T04:56:50.420Z,11.40
2018-03-15T04:59:18.693Z,11.97
2018-03-15T05:01:46.970Z,11.70
2018-03-15T05:04:15.269Z,12.03
2018-03-15T05:06:44.313Z,13.27
2018-03-15T05:09:12.732Z,13.63
2018-03-15T05:11:41.004Z,13.40
2018-03-15T05:14:09.383Z,12.90
2018-03-15T05:16:37.771Z,13.47
2018-03-15T05:19:06.059Z,13.13
2018-03-15T05:21:35.096Z,14.50
2018-03-15T05:24:03.424Z,12.70
2018-03-15T05:26:31.710Z,12.80
2018-03-15T05:29:00.751Z,14.33
2018-03-15T05:31:29.039Z,12.87
2018-03-15T05:33:57.306Z,13.17
2018-03-15T05:36:25.609Z,14.07
2018-03-15T05:38:53.903Z,13.27
2018-03-15T05:41:22.188Z,13.80
2018-03-15T05:43:51.231Z,13.50
2018-03-15T05:46:19.520Z,14.60
2018-03-15T05:48:47.821Z,14.23
2018-03-15T05:51:16.241Z,14.23
2018-03-15T05:53:45.395Z,13.77
2018-03-15T05:56:13.666Z,14.10
2018-03-15T05:58:41.957Z,13.33
2018-03-15T06:01:10.395Z,14.47
2018-03-15T06:03:39.474Z,13.97
2018-03-15T06:06:07.765Z,14.37
2018-03-15T06:08:36.047Z,15.07
2018-03-15T06:11:04.589Z,13.97
2018-03-15T06:13:32.995Z,15.20
2018-03-15T06:16:02.783Z,14.90
2018-03-15T06:18:31.083Z,13.30
2018-03-15T06:20:59.358Z,13.57
2018-03-15T06:23:27.741Z,15.43
2018-03-15T06:25:56.112Z,14.50
2018-03-15T06:28:24.411Z,12.10
2018-03-15T06:30:52.699Z,13.50
2018-03-15T06:33:21.765Z,14.57
2018-03-15T06:35:50.039Z,14.30
2018-03-15T06:38:18.329Z,14.27
2018-03-15T06:40:46.596Z,13.23
2018-03-15T06:43:14.981Z,12.10
2018-03-15T06:45:43.235Z,14.87
2018-03-15T06:48:11.549Z,13.63
2018-03-15T06:50:39.811Z,14.33
2018-03-15T06:53:08.090Z,13.20
2018-03-15T06:55:36.376Z,15.57
2018-03-15T06:58:06.151Z,13.13
2018-03-15T07:00:34.438Z,14.93
2018-03-15T07:03:02.833Z,13.43
2018-03-15T07:05:31.123Z,14.40
2018-03-15T07:07:59.392Z,14.50
2018-03-15T07:10:27.740Z,14.80
2018-03-15T07:12:56.751Z,13.87
2018-03-15T07:15:25.039Z,14.13
2018-03-15T07:17:53.418Z,13.60
2018-03-15T07:20:21.697Z,13.27
2018-03-15T07:22:50.006Z,11.47
2018-03-15T07:25:19.056Z,12.23
2018-03-15T07:27:47.344Z,13.17
2018-03-15T07:30:16.383Z,13.10
2018-03-15T07:32:44.673Z,14.63
2018-03-15T07:35:12.947Z,12.10
2018-03-15T07:37:41.236Z,14.10
2018-03-15T07:40:09.528Z,12.40
2018-03-15T07:42:37.840Z,13.70
2018-03-15T07:45:06.133Z,14.13
2018-03-15T07:47:35.177Z,12.80
2018-03-15T07:50:03.501Z,13.30
2018-03-15T07:52:33.267Z,13.27
2018-03-15T07:55:01.672Z,13.00
2018-03-15T07:57:29.950Z,12.27
2018-03-15T07:59:58.241Z,14.77
2018-03-15T08:02:26.503Z,11.73
2018-03-15T08:04:54.794Z,13.80
2018-03-15T08:07:23.064Z,13.07
2018-03-15T08:09:51.355Z,12.97
2018-03-15T08:12:20.407Z,14.30
2018-03-15T08:14:48.705Z,14.47
2018-03-15T08:17:16.976Z,13.90
2018-03-15T08:19:45.362Z,15.07
2018-03-15T08:22:13.657Z,13.50
2018-03-15T08:24:41.934Z,13.90
2018-03-15T08:27:10.538Z,13.97
2018-03-15T08:29:39.562Z,17.30
2018-03-15T08:32:07.864Z,14.50
2018-03-15T08:34:36.132Z,14.03
2018-03-15T08:37:04.531Z,14.93
2018-03-15T08:39:32.794Z,14.57
2018-03-15T08:42:01.108Z,15.83
2018-03-15T08:44:30.167Z,15.67
2018-03-15T08:46:58.439Z,16.57
2018-03-15T08:49:26.733Z,15.77
2018-03-15T08:51:55.001Z,15.17
2018-03-15T08:54:23.315Z,14.77
2018-03-15T08:56:52.489Z,14.73
2018-03-15T08:59:20.768Z,17.67
2018-03-15T09:01:49.037Z,15.00
2018-03-15T09:04:17.320Z,17.87
2018-03-15T09:06:45.604Z,14.80
2018-03-15T09:09:14.044Z,15.00
2018-03-15T09:11:42.364Z,14.93
2018-03-15T09:14:10.654Z,14.03
2018-03-15T09:16:38.940Z,13.07
2018-03-15T09:19:08.045Z,13.90
2018-03-15T09:21:37.085Z,13.07
2018-03-15T09:24:05.388Z,12.50
2018-03-15T09:26:33.759Z,13.47
2018-03-15T09:29:02.039Z,11.20
2018-03-15T09:31:30.328Z,12.70
2018-03-15T09:33:58.616Z,14.23
2018-03-15T09:36:27.706Z,16.40
2018-03-15T09:38:56.758Z,14.30
2018-03-15T09:41:25.075Z,14.00
2018-03-15T09:43:53.378Z,14.30
2018-03-15T09:46:21.680Z,14.33
2018-03-15T09:48:49.992Z,14.70
2018-03-15T09:51:18.341Z,15.47
2018-03-15T09:53:47.367Z,15.27
2018-03-15T09:56:15.672Z,15.07
2018-03-15T09:58:43.941Z,14.13
2018-03-15T10:01:13.021Z,15.17
2018-03-15T10:03:41.338Z,15.03
2018-03-15T10:06:09.627Z,13.93
2018-03-15T10:08:37.948Z,14.47
2018-03-15T10:11:06.232Z,13.97
2018-03-15T10:13:34.519Z,15.30
2018-03-15T10:16:02.913Z,14.93
2018-03-15T10:18:31.978Z,13.90
2018-03-15T10:21:00.255Z,14.03
2018-03-15T10:23:28.588Z,13.53
2018-03-15T10:25:56.878Z,13.93
2018-03-15T10:28:25.593Z,13.30
2018-03-15T10:30:53.919Z,12.80
2018-03-15T10:33:27.976Z,13.13
2018-03-15T10:35:56.276Z,13.20
2018-03-15T10:38:25.363Z,12.67
2018-03-15T10:40:53.663Z,13.27
2018-03-15T10:43:22.724Z,13.80
2018-03-15T10:45:50.996Z,12.37
2018-03-15T10:48:19.454Z,11.93
2018-03-15T10:50:47.700Z,12.97
2018-03-15T10:53:16.781Z,13.27
2018-03-15T10:55:45.151Z,13.97
2018-03-15T10:58:14.229Z,13.43
2018-03-15T11:00:48.088Z,13.10
2018-03-15T11:03:17.199Z,15.60
2018-03-15T11:05:46.342Z,14.20
2018-03-15T11:08:20.301Z,12.20
2018-03-15T11:10:48.584Z,12.63
2018-03-15T11:13:16.919Z,12.13
2018-03-15T11:15:45.192Z,12.00
2018-03-15T11:18:13.470Z,12.90
2018-03-15T11:20:42.536Z,10.33
2018-03-15T11:23:10.944Z,13.40
2018-03-15T11:25:39.244Z,11.33
2018-03-15T11:28:08.319Z,12.40
2018-03-15T11:30:37.418Z,12.77
2018-03-15T11:33:05.897Z,12.93
2018-03-15T11:35:34.194Z,12.27
2018-03-15T11:38:02.546Z,11.53
2018-03-15T11:40:30.843Z,10.60
2018-03-15T11:42:59.213Z,10.67
2018-03-15T11:45:27.504Z,11.13
2018-03-15T11:47:56.549Z,10.93
2018-03-15T11:50:24.923Z,10.63
2018-03-15T11:52:53.960Z,11.80
2018-03-15T11:55:22.231Z,10.10
2018-03-15T11:57:50.618Z,10.50
2018-03-15T12:00:19.715Z,10.30
2018-03-15T12:02:48.005Z,9.97
2018-03-15T12:05:16.365Z,10.00
2018-03-15T12:07:45.496Z,9.47
2018-03-15T12:10:13.718Z,10.73
2018-03-15T12:12:42.000Z,10.43
2018-03-15T12:15:10.272Z,9.00
2018-03-15T12:17:38.577Z,8.57
2018-03-15T12:20:06.951Z,10.40
2018-03-15T12:22:35.245Z,10.20
2018-03-15T12:25:03.497Z,9.63
2018-03-15T12:27:31.903Z,9.60
2018-03-15T12:30:00.146Z,9.50
2018-03-15T12:32:28.411Z,9.33
2018-03-15T12:34:56.712Z,13.70
2018-03-15T12:37:24.986Z,10.10
2018-03-15T12:39:53.259Z,9.33
2018-03-15T12:42:21.524Z,9.10
2018-03-15T12:44:50.644Z,9.23
2018-03-15T12:47:18.932Z,9.00
2018-03-15T12:49:47.243Z,8.40
2018-03-15T12:52:15.503Z,8.90
2018-03-15T12:54:43.912Z,8.60
2018-03-15T12:57:12.175Z,9.10
2018-03-15T12:59:40.477Z,9.37
2018-03-15T13:02:09.653Z,8.53
2018-03-15T13:04:38.040Z,8.77
2018-03-15T13:07:06.408Z,23.73
2018-03-15T13:09:34.712Z,9.73
2018-03-15T13:12:03.753Z,9.10
2018-03-15T13:14:32.040Z,9.10
2018-03-15T13:17:00.305Z,10.50
2018-03-15T13:19:28.661Z,8.53
2018-03-15T13:21:56.992Z,8.70
2018-03-15T13:24:25.290Z,9.00
2018-03-15T13:26:53.548Z,9.20
2018-03-15T13:29:21.823Z,9.17
2018-03-15T13:31:50.097Z,9.20
2018-03-15T13:34:18.366Z,9.27
2018-03-15T13:36:46.651Z,9.07
2018-03-15T13:39:14.932Z,9.90
2018-03-15T13:41:43.308Z,9.23
2018-03-15T13:44:11.556Z,9.13
2018-03-15T13:46:40.634Z,10.30
2018-03-15T13:49:08.907Z,8.63
2018-03-15T13:51:38.050Z,8.90
2018-03-15T13:54:06.308Z,8.53
2018-03-15T13:56:34.589Z,9.37
2018-03-15T13:59:02.885Z,10.10
2018-03-15T14:01:31.265Z,9.80
2018-03-15T14:03:59.546Z,10.17
2018-03-15T14:06:27.811Z,9.67
2018-03-15T14:08:56.213Z,11.10
2018-03-15T14:11:26.002Z,10.80
2018-03-15T14:13:54.288Z,10.77
2018-03-15T14:16:22.564Z,11.30
2018-03-15T14:18:50.859Z,10.33
2018-03-15T14:21:19.116Z,8.90
2018-03-15T14:23:47.397Z,10.47
2018-03-15T14:26:15.701Z,10.83
2018-03-15T14:28:44.767Z,9.60
2018-03-15T14:31:13.043Z,9.37
2018-03-15T14:33:41.337Z,10.03
2018-03-15T14:36:09.717Z,9.37
2018-03-15T14:38:38.020Z,10.30
2018-03-15T14:41:06.303Z,10.30
2018-03-15T14:43:35.324Z,9.70
2018-03-15T14:46:03.613Z,10.03
2018-03-15T14:48:31.925Z,9.90
2018-03-15T14:51:00.210Z,9.30
2018-03-15T14:53:28.485Z,9.60
2018-03-15T14:55:56.845Z,9.70
2018-03-15T14:58:25.134Z,11.57
2018-03-15T15:00:53.410Z,10.43
2018-03-15T15:03:21.776Z,10.60
2018-03-15T15:05:50.093Z,10.50
2018-03-15T15:08:19.119Z,9.90
2018-03-15T15:10:47.389Z,9.43
2018-03-15T15:13:15.661Z,9.63
2018-03-15T15:15:43.948Z,9.33
2018-03-15T15:18:12.285Z,10.00
2018-03-15T15:20:40.520Z,9.47
2018-03-15T15:23:08.853Z,9.20
2018-03-15T15:25:38.613Z,9.23
2018-03-15T15:28:06.901Z,10.40
2018-03-15T15:30:35.165Z,9.57
2018-03-15T15:33:03.455Z,9.53
2018-03-15T15:35:31.840Z,8.90
2018-03-15T15:38:00.221Z,9.60
2018-03-15T15:40:28.623Z,9.40
2018-03-15T15:42:56.900Z,8.80
2018-03-15T15:45:25.932Z,13.13
2018-03-15T15:47:54.233Z,10.03
2018-03-15T15:50:22.538Z,9.10
2018-03-15T15:52:50.793Z,8.47
2018-03-15T15:55:19.185Z,8.27
2018-03-15T15:57:47.640Z,9.20
2018-03-15T16:00:15.934Z,9.37
2018-03-15T16:02:44.211Z,9.73
2018-03-15T16:05:12.508Z,9.07
2018-03-15T16:07:41.612Z,9.80
2018-03-15T16:10:11.410Z,10.63
2018-03-15T16:12:39.789Z,9.17
2018-03-15T16:15:08.894Z,8.60
2018-03-15T16:17:37.162Z,8.80
2018-03-15T16:20:05.445Z,10.40
2018-03-15T16:22:33.732Z,9.77
2018-03-15T16:25:02.801Z,9.80
2018-03-15T16:27:31.069Z,15.63
2018-03-15T16:29:59.361Z,12.40
2018-03-15T16:32:27.649Z,10.57
2018-03-15T16:34:55.971Z,11.73
2018-03-15T16:37:24.273Z,11.10
2018-03-15T16:39:52.608Z,10.90
2018-03-15T16:42:21.662Z,10.60
2018-03-15T16:44:50.047Z,13.43
2018-03-15T16:47:18.430Z,11.57
2018-03-15T16:49:46.688Z,12.27
2018-03-15T16:52:15.085Z,11.40
2018-03-15T16:54:43.356Z,10.60
2018-03-15T16:57:11.646Z,11.10
2018-03-15T16:59:39.929Z,12.37
2018-03-15T17:02:08.258Z,12.20
2018-03-15T17:04:36.519Z,13.27
2018-03-15T17:07:04.804Z,11.63
2018-03-15T17:09:33.094Z,13.00
2018-03-15T17:12:01.408Z,11.80
2018-03-15T17:14:30.507Z,13.13
2018-03-15T17:17:00.325Z,11.10
2018-03-15T17:19:28.604Z,11.50
2018-03-15T17:21:56.880Z,11.90
2018-03-15T17:24:25.179Z,12.27
2018-03-15T17:26:54.218Z,12.07
2018-03-15T17:29:22.504Z,12.20
2018-03-15T17:31:50.785Z,12.87
2018-03-15T17:34:19.196Z,12.90
2018-03-15T17:36:48.233Z,12.33
2018-03-15T17:39:16.531Z,12.90
2018-03-15T17:41:44.791Z,11.80
2018-03-15T17:44:13.204Z,13.37
2018-03-15T17:46:41.479Z,12.53
2018-03-15T17:49:09.788Z,13.20
2018-03-15T17:51:38.833Z,12.67
2018-03-15T17:54:07.118Z,11.97
2018-03-15T17:56:35.375Z,13.10
2018-03-15T17:59:03.803Z,12.27
2018-03-15T18:01:32.065Z,13.00
2018-03-15T18:04:00.353Z,13.77
2018-03-15T18:09:03.409Z,12.77
2018-03-15T18:11:31.701Z,13.77
2018-03-15T18:13:59.978Z,12.87
2018-03-15T18:16:28.255Z,13.27
2018-03-15T18:18:56.519Z,13.23
2018-03-15T18:21:24.808Z,13.80
2018-03-15T18:23:53.114Z,13.90
2018-03-15T18:26:21.400Z,13.57
2018-03-15T18:28:49.773Z,15.00
2018-03-15T18:31:18.062Z,11.23
2018-03-15T18:33:46.332Z,14.97
2018-03-15T18:36:14.629Z,12.50
2018-03-15T18:38:43.657Z,13.40
2018-03-15T18:41:11.933Z,13.77
2018-03-15T18:43:40.212Z,13.27
2018-03-15T18:46:08.501Z,13.53
2018-03-15T18:48:36.807Z,13.90
2018-03-15T18:51:05.078Z,13.70
2018-03-15T18:53:33.460Z,14.80
2018-03-15T18:56:01.728Z,14.10
2018-03-15T18:58:30.118Z,14.00
2018-03-15T19:00:58.396Z,17.37
2018-03-15T19:03:26.676Z,13.83
2018-03-15T19:05:54.956Z,16.80
2018-03-15T19:08:23.336Z,15.07
2018-03-15T19:10:51.709Z,14.03
2018-03-15T19:13:20.009Z,14.93
2018-03-15T19:15:49.059Z,14.57
2018-03-15T19:18:17.324Z,16.53
2018-03-15T19:20:45.636Z,15.77
2018-03-15T19:23:13.886Z,16.47
2018-03-15T19:25:42.196Z,16.00
2018-03-15T19:28:10.569Z,16.83
2018-03-15T19:30:38.947Z,14.97
2018-03-15T19:33:07.227Z,15.87
2018-03-15T19:35:35.511Z,16.83
2018-03-15T19:38:04.545Z,16.97
2018-03-15T19:40:32.832Z,16.03
2018-03-15T19:43:01.112Z,18.20
2018-03-15T19:45:29.433Z,16.10
2018-03-15T19:47:57.810Z,17.00
2018-03-15T19:50:26.069Z,17.77
2018-03-15T19:52:54.363Z,14.67
2018-03-15T19:55:22.744Z,18.67
2018-03-15T19:57:51.023Z,16.90
2018-03-15T20:00:19.400Z,17.10
2018-03-15T20:02:47.695Z,17.53
2018-03-15T20:05:15.993Z,16.33
2018-03-15T20:07:45.046Z,17.13
2018-03-15T20:10:13.352Z,16.40
2018-03-15T20:12:41.677Z,17.70
2018-03-15T20:15:10.668Z,17.70
2018-03-15T20:17:38.948Z,16.23
2018-03-15T20:20:07.213Z,17.20
2018-03-15T20:22:41.261Z,16.87
2018-03-15T20:25:09.533Z,18.30
2018-03-15T20:27:43.646Z,18.13
2018-03-15T20:30:12.037Z,17.50
2018-03-15T20:32:46.001Z,16.57
2018-03-15T20:35:14.293Z,18.60
2018-03-15T20:37:42.547Z,19.60
2018-03-15T20:40:16.421Z,18.33
2018-03-15T20:42:44.704Z,18.47
2018-03-15T20:45:19.470Z,17.30
2018-03-15T20:47:53.535Z,18.00
2018-03-15T20:50:21.820Z,19.20
2018-03-15T20:52:50.099Z,18.83
2018-03-15T20:55:18.401Z,20.40
2018-03-15T20:57:47.441Z,19.90
2018-03-15T21:00:15.737Z,19.67
2018-03-15T21:02:44.015Z,19.60
2018-03-15T21:05:12.309Z,18.30
2018-03-15T21:07:41.389Z,20.10
2018-03-15T21:10:09.690Z,18.83
2018-03-15T21:12:38.732Z,17.30
2018-03-15T21:15:07.026Z,19.60
2018-03-15T21:17:35.424Z,20.00
2018-03-15T21:20:03.614Z,19.23
2018-03-15T21:22:32.656Z,19.00
2018-03-15T21:25:00.953Z,19.40
2018-03-15T21:27:29.241Z,19.60
2018-03-15T21:29:57.546Z,20.20
2018-03-15T21:32:26.603Z,19.47
2018-03-15T21:34:54.884Z,19.87
2018-03-15T21:37:23.182Z,19.60
2018-03-15T21:39:51.458Z,18.40
2018-03-15T21:42:19.737Z,19.87
2018-03-15T21:44:48.029Z,21.20
2018-03-15T21:47:16.325Z,21.57
2018-03-15T21:49:44.601Z,19.10
2018-03-15T21:52:13.649Z,20.90
2018-03-15T21:54:41.950Z,21.10
2018-03-15T21:57:11.000Z,20.30
2018-03-15T21:59:39.297Z,21.47
2018-03-15T22:02:07.781Z,21.27
2018-03-15T22:04:36.235Z,21.00
2018-03-15T22:07:04.536Z,21.10
2018-03-15T22:09:32.817Z,21.20
2018-03-15T22:12:01.105Z,20.93
2018-03-15T22:14:29.484Z,21.20
2018-03-15T22:16:58.581Z,22.17
2018-03-15T22:19:26.832Z,23.20
2018-03-15T22:21:55.128Z,20.40
2018-03-15T22:24:23.509Z,22.00
2018-03-15T22:26:51.871Z,21.00
2018-03-15T22:29:20.163Z,22.37
2018-03-15T22:31:48.416Z,20.43
2018-03-15T22:34:16.729Z,20.93
2018-03-15T22:36:45.008Z,21.47
2018-03-15T22:39:13.316Z,22.30
2018-03-15T22:41:42.349Z,21.40
2018-03-15T22:44:10.757Z,20.20
2018-03-15T22:46:39.041Z,24.53
2018-03-15T22:49:07.358Z,21.50
2018-03-15T22:51:35.625Z,18.63
2018-03-15T22:54:03.925Z,20.30
2018-03-15T22:56:32.216Z,22.27
2018-03-15T22:59:00.493Z,20.13
2018-03-15T23:01:28.888Z,22.93
2018-03-15T23:03:57.185Z,21.47
2018-03-15T23:06:25.468Z,21.83
2018-03-15T23:08:54.532Z,21.20
2018-03-15T23:11:22.917Z,19.73
2018-03-15T23:13:51.200Z,22.30
2018-03-15T23:16:19.497Z,21.90
2018-03-15T23:18:47.773Z,22.20
2018-03-15T23:21:16.832Z,20.80
2018-03-15T23:23:45.097Z,19.63
2018-03-15T23:26:13.510Z,21.47
2018-03-15T23:28:41.782Z,21.20
2018-03-15T23:33:44.712Z,21.77
2018-03-15T23:36:13.745Z,20.80
2018-03-15T23:38:42.033Z,20.87
2018-03-15T23:41:10.317Z,20.30
2018-03-15T23:43:38.613Z,19.80
2018-03-15T23:46:06.877Z,19.00
2018-03-15T23:48:35.165Z,19.47
2018-03-15T23:51:03.545Z,18.47
2018-03-15T23:53:32.028Z,20.20
2018-03-15T23:56:00.297Z,20.17
2018-03-15T23:58:28.596Z,20.07
